This demonstration page uses our WeatherBlox Daily Observations layout. Learn more.

39.29038, -76.61219

Hourly Observations for May 7, 2019

Temp ( °F °C ) Dew Point ( °F °C ) Humidity (%) Winds ( mph kmh ) Pressure ( in mb ) Visibility ( mi km ) Precip ( " mm )
12:54 am 00:54 undefined 64 17.8 58 14.4 81 81 undefined N/A 30.1 1019 N/A 0 0
1:54 am 01:54 undefined 63 17.2 58 14.4 84 84 undefined N/A 30.1 1019 N/A 0 0
2:54 am 02:54 undefined 62 16.7 57 13.9 84 84 undefined N/A 30.11 1020 N/A 0 0
3:54 am 03:54 undefined 61 16.1 57 13.9 87 87 undefined N/A 30.12 1020 N/A 0 0
4:54 am 04:54 undefined 61 16.1 57 13.9 87 87 undefined N/A 30.11 1020 N/A 0 0
5:54 am 05:54 undefined 61 16.1 57 13.9 87 87 undefined N/A 30.11 1020 N/A 0 0
6:54 am 06:54 undefined 61 16.1 58 14.4 90 90 undefined N/A 30.13 1020 N/A 0 0
7:54 am 07:54 undefined 62 16.7 58 14.4 86 86 undefined N/A 30.16 1021 N/A 0 0
8:54 am 08:54 undefined 64 17.8 58 14.4 81 81 undefined N/A 30.17 1022 N/A 0 0
9:54 am 09:54 undefined 68 20 59 15 73 73 undefined N/A 30.19 1022 N/A 0 0
10:54 am 10:54 undefined 71 21.7 60 15.6 68 68 undefined N/A 30.2 1023 N/A 0 0
11:54 am 11:54 undefined 75 23.9 60 15.6 60 60 undefined N/A 30.18 1022 N/A 0 0
12:54 pm 12:54 undefined 77 25 63 17.2 62 62 undefined N/A 30.16 1021 N/A 0 0
1:54 pm 13:54 undefined 77 25 62 16.7 60 60 undefined N/A 30.13 1020 N/A 0 0
2:54 pm 14:54 undefined 77 25 63 17.2 62 62 undefined N/A 30.1 1019 N/A 0 0
3:54 pm 15:54 undefined 78 25.6 61 16.1 56 56 undefined N/A 30.08 1019 N/A 0 0
4:54 pm 16:54 undefined 80 26.7 62 16.7 54 54 undefined N/A 30.08 1019 N/A 0 0
5:54 pm 17:54 undefined 77 25 61 16.1 58 58 undefined N/A 30.06 1018 N/A 0 0
6:54 pm 18:54 undefined 75 23.9 61 16.1 62 62 undefined N/A 30.06 1018 N/A 0 0
7:54 pm 19:54 undefined 73 22.8 59 15 62 62 undefined N/A 30.07 1018 N/A 0 0
8:54 pm 20:54 undefined 71 21.7 59 15 66 66 undefined N/A 30.09 1019 N/A 0 0
9:54 pm 21:54 undefined 69 20.6 60 15.6 73 73 undefined N/A 30.09 1019 N/A 0 0
10:54 pm 22:54 undefined 69 20.6 60 15.6 73 73 undefined N/A 30.1 1019 N/A 0 0
11:54 pm 23:54 undefined 68 20 60 15.6 76 76 undefined N/A 30.1 1019 N/A 0 0

Powered by AerisWeather